Weather at London Heathrow Airport

Public forecast

Using degrees Celsius for public forecast. Weather courtesy of forecast.io.

Current aviation weather report (METAR) for London Heathrow Airport

Retrieved 2020/11/28 19:20 UTC (21 minutes ago):

EGLL 281920Z AUTO 06006KT 8000 OVC009 10/08 Q1021 TEMPO 4000 BR

Aviation forecast (TAF) for London Heathrow Airport

Retrieved 2020/11/28 18:00 UTC (2 hours ago):

TAF EGLL 281655Z 2818/2924 09007KT 6000 BKN007 TEMPO 2818/2821 4000 BR SCT012 TEMPO 2821/2912 3000 BR PROB40 TEMPO 2821/2912 BKN003 PROB40 TEMPO 2912/2918 3000 BR BKN004 TEMPO 2918/2924 3000 BR BKN003